sensor_id;sensor_type;location;lat;lon;timestamp;P1;durP1;ratioP1;P2;durP2;ratioP2
28166;SDS011;15455;53.376;-6.262;2024-03-29T00:01:31;34.28;;;16.08;;
28166;SDS011;15455;53.376;-6.262;2024-03-29T00:04:16;32.20;;;16.92;;
28166;SDS011;15455;53.376;-6.262;2024-03-29T00:07:00;23.45;;;14.18;;
28166;SDS011;15455;53.376;-6.262;2024-03-29T00:09:45;44.38;;;15.57;;
28166;SDS011;15455;53.376;-6.262;2024-03-29T00:12:30;29.15;;;13.95;;
28166;SDS011;15455;53.376;-6.262;2024-03-29T00:15:15;27.33;;;14.60;;
28166;SDS011;15455;53.376;-6.262;2024-03-29T00:18:00;23.63;;;13.88;;
28166;SDS011;15455;53.376;-6.262;2024-03-29T00:20:45;36.63;;;16.75;;
28166;SDS011;15455;53.376;-6.262;2024-03-29T00:23:29;22.73;;;13.93;;
28166;SDS011;15455;53.376;-6.262;2024-03-29T00:26:14;16.80;;;14.35;;
28166;SDS011;15455;53.376;-6.262;2024-03-29T00:28:58;22.50;;;16.27;;
28166;SDS011;15455;53.376;-6.262;2024-03-29T00:31:43;31.88;;;15.63;;
28166;SDS011;15455;53.376;-6.262;2024-03-29T00:34:28;30.73;;;15.57;;
28166;SDS011;15455;53.376;-6.262;2024-03-29T00:37:12;24.77;;;14.40;;
28166;SDS011;15455;53.376;-6.262;2024-03-29T00:39:57;23.60;;;12.85;;
28166;SDS011;15455;53.376;-6.262;2024-03-29T00:42:41;34.92;;;16.08;;
28166;SDS011;15455;53.376;-6.262;2024-03-29T00:45:26;33.53;;;14.32;;
28166;SDS011;15455;53.376;-6.262;2024-03-29T00:48:12;38.50;;;17.33;;
28166;SDS011;15455;53.376;-6.262;2024-03-29T00:50:59;36.08;;;17.65;;
28166;SDS011;15455;53.376;-6.262;2024-03-29T00:53:44;31.38;;;16.25;;
28166;SDS011;15455;53.376;-6.262;2024-03-29T00:56:28;22.60;;;14.00;;
28166;SDS011;15455;53.376;-6.262;2024-03-29T00:59:13;17.15;;;12.10;;
28166;SDS011;15455;53.376;-6.262;2024-03-29T01:01:57;18.70;;;12.25;;
28166;SDS011;15455;53.376;-6.262;2024-03-29T01:04:42;18.08;;;12.50;;
28166;SDS011;15455;53.376;-6.262;2024-03-29T01:07:27;16.20;;;12.32;;
28166;SDS011;15455;53.376;-6.262;2024-03-29T01:10:11;19.65;;;13.10;;
28166;SDS011;15455;53.376;-6.262;2024-03-29T01:12:56;13.18;;;11.75;;
28166;SDS011;15455;53.376;-6.262;2024-03-29T01:15:40;16.45;;;11.50;;
28166;SDS011;15455;53.376;-6.262;2024-03-29T01:18:25;12.20;;;9.50;;
28166;SDS011;15455;53.376;-6.262;2024-03-29T01:21:09;11.60;;;9.55;;
28166;SDS011;15455;53.376;-6.262;2024-03-29T01:23:54;12.95;;;9.05;;
28166;SDS011;15455;53.376;-6.262;2024-03-29T01:26:39;11.70;;;9.40;;
28166;SDS011;15455;53.376;-6.262;2024-03-29T01:29:23;11.65;;;10.00;;
28166;SDS011;15455;53.376;-6.262;2024-03-29T01:32:08;13.15;;;11.90;;
28166;SDS011;15455;53.376;-6.262;2024-03-29T01:34:52;12.18;;;11.13;;
28166;SDS011;15455;53.376;-6.262;2024-03-29T01:37:37;12.60;;;11.55;;
28166;SDS011;15455;53.376;-6.262;2024-03-29T01:40:21;14.63;;;13.32;;
28166;SDS011;15455;53.376;-6.262;2024-03-29T01:43:06;13.70;;;12.73;;
28166;SDS011;15455;53.376;-6.262;2024-03-29T01:45:53;12.55;;;11.40;;
28166;SDS011;15455;53.376;-6.262;2024-03-29T01:48:39;11.93;;;11.02;;
28166;SDS011;15455;53.376;-6.262;2024-03-29T01:51:23;12.30;;;11.13;;
28166;SDS011;15455;53.376;-6.262;2024-03-29T01:54:08;12.48;;;11.40;;
28166;SDS011;15455;53.376;-6.262;2024-03-29T01:56:54;13.90;;;11.77;;
28166;SDS011;15455;53.376;-6.262;2024-03-29T01:59:40;13.75;;;12.35;;
28166;SDS011;15455;53.376;-6.262;2024-03-29T02:02:28;13.43;;;11.65;;
28166;SDS011;15455;53.376;-6.262;2024-03-29T02:05:12;10.55;;;9.57;;
28166;SDS011;15455;53.376;-6.262;2024-03-29T02:08:00;21.10;;;9.93;;
28166;SDS011;15455;53.376;-6.262;2024-03-29T02:10:45;12.45;;;11.02;;
28166;SDS011;15455;53.376;-6.262;2024-03-29T02:13:31;10.75;;;9.93;;
28166;SDS011;15455;53.376;-6.262;2024-03-29T02:16:16;22.25;;;12.73;;
28166;SDS011;15455;53.376;-6.262;2024-03-29T02:19:00;14.07;;;13.05;;
28166;SDS011;15455;53.376;-6.262;2024-03-29T02:21:45;12.98;;;11.90;;
28166;SDS011;15455;53.376;-6.262;2024-03-29T02:24:33;14.10;;;12.82;;
28166;SDS011;15455;53.376;-6.262;2024-03-29T02:27:18;11.93;;;10.75;;
28166;SDS011;15455;53.376;-6.262;2024-03-29T02:30:06;12.07;;;10.57;;
28166;SDS011;15455;53.376;-6.262;2024-03-29T02:32:50;13.65;;;12.07;;
28166;SDS011;15455;53.376;-6.262;2024-03-29T02:35:35;14.07;;;12.55;;
28166;SDS011;15455;53.376;-6.262;2024-03-29T02:38:19;14.05;;;12.93;;
28166;SDS011;15455;53.376;-6.262;2024-03-29T02:41:04;13.98;;;12.63;;
28166;SDS011;15455;53.376;-6.262;2024-03-29T02:43:48;12.23;;;11.32;;
28166;SDS011;15455;53.376;-6.262;2024-03-29T02:46:33;13.50;;;12.07;;
28166;SDS011;15455;53.376;-6.262;2024-03-29T02:49:21;14.20;;;13.18;;
28166;SDS011;15455;53.376;-6.262;2024-03-29T02:52:06;13.52;;;12.55;;
28166;SDS011;15455;53.376;-6.262;2024-03-29T02:54:52;14.18;;;12.90;;
28166;SDS011;15455;53.376;-6.262;2024-03-29T02:57:37;13.88;;;13.00;;
28166;SDS011;15455;53.376;-6.262;2024-03-29T03:00:21;13.25;;;12.15;;
28166;SDS011;15455;53.376;-6.262;2024-03-29T03:03:06;13.65;;;12.45;;
28166;SDS011;15455;53.376;-6.262;2024-03-29T03:05:51;13.05;;;12.20;;
28166;SDS011;15455;53.376;-6.262;2024-03-29T03:08:36;15.40;;;14.20;;
28166;SDS011;15455;53.376;-6.262;2024-03-29T03:11:39;14.02;;;12.73;;
28166;SDS011;15455;53.376;-6.262;2024-03-29T03:14:23;12.88;;;12.23;;
28166;SDS011;15455;53.376;-6.262;2024-03-29T03:17:08;13.27;;;12.32;;
28166;SDS011;15455;53.376;-6.262;2024-03-29T03:19:54;12.88;;;11.35;;
28166;SDS011;15455;53.376;-6.262;2024-03-29T03:22:38;11.10;;;10.50;;
28166;SDS011;15455;53.376;-6.262;2024-03-29T03:25:26;10.80;;;10.00;;
28166;SDS011;15455;53.376;-6.262;2024-03-29T03:28:11;12.30;;;11.13;;
28166;SDS011;15455;53.376;-6.262;2024-03-29T03:30:55;11.95;;;11.27;;
28166;SDS011;15455;53.376;-6.262;2024-03-29T03:33:40;10.98;;;10.45;;
28166;SDS011;15455;53.376;-6.262;2024-03-29T03:36:24;12.43;;;11.63;;
28166;SDS011;15455;53.376;-6.262;2024-03-29T03:39:09;10.88;;;10.40;;
28166;SDS011;15455;53.376;-6.262;2024-03-29T03:41:53;14.60;;;13.20;;
28166;SDS011;15455;53.376;-6.262;2024-03-29T03:44:38;14.45;;;13.55;;
28166;SDS011;15455;53.376;-6.262;2024-03-29T03:47:22;15.50;;;14.65;;
28166;SDS011;15455;53.376;-6.262;2024-03-29T03:50:07;15.38;;;14.55;;
28166;SDS011;15455;53.376;-6.262;2024-03-29T03:52:52;16.15;;;15.05;;
28166;SDS011;15455;53.376;-6.262;2024-03-29T03:55:37;18.35;;;17.10;;
28166;SDS011;15455;53.376;-6.262;2024-03-29T03:58:22;18.58;;;16.80;;
28166;SDS011;15455;53.376;-6.262;2024-03-29T04:01:06;17.77;;;16.55;;
28166;SDS011;15455;53.376;-6.262;2024-03-29T04:03:50;17.08;;;15.50;;
28166;SDS011;15455;53.376;-6.262;2024-03-29T04:06:35;14.98;;;14.18;;
28166;SDS011;15455;53.376;-6.262;2024-03-29T04:09:19;16.30;;;15.07;;
28166;SDS011;15455;53.376;-6.262;2024-03-29T04:12:04;18.05;;;16.15;;
28166;SDS011;15455;53.376;-6.262;2024-03-29T04:14:48;14.93;;;13.25;;
28166;SDS011;15455;53.376;-6.262;2024-03-29T04:17:33;16.52;;;15.27;;
28166;SDS011;15455;53.376;-6.262;2024-03-29T04:20:19;18.10;;;15.48;;
28166;SDS011;15455;53.376;-6.262;2024-03-29T04:23:04;16.38;;;15.25;;
28166;SDS011;15455;53.376;-6.262;2024-03-29T04:25:52;16.17;;;15.27;;
28166;SDS011;15455;53.376;-6.262;2024-03-29T04:28:37;16.90;;;15.75;;
28166;SDS011;15455;53.376;-6.262;2024-03-29T04:31:22;17.35;;;15.88;;
28166;SDS011;15455;53.376;-6.262;2024-03-29T04:34:07;20.25;;;18.17;;
28166;SDS011;15455;53.376;-6.262;2024-03-29T04:36:51;17.35;;;16.33;;
28166;SDS011;15455;53.376;-6.262;2024-03-29T04:39:36;17.17;;;15.77;;
28166;SDS011;15455;53.376;-6.262;2024-03-29T04:42:20;20.77;;;16.05;;
28166;SDS011;15455;53.376;-6.262;2024-03-29T04:45:05;17.17;;;15.65;;
28166;SDS011;15455;53.376;-6.262;2024-03-29T04:47:50;19.27;;;17.95;;
28166;SDS011;15455;53.376;-6.262;2024-03-29T04:50:34;17.02;;;16.10;;
28166;SDS011;15455;53.376;-6.262;2024-03-29T04:53:19;19.42;;;15.63;;
28166;SDS011;15455;53.376;-6.262;2024-03-29T04:56:03;23.83;;;15.90;;
28166;SDS011;15455;53.376;-6.262;2024-03-29T04:58:48;15.57;;;14.20;;
28166;SDS011;15455;53.376;-6.262;2024-03-29T05:01:32;17.77;;;16.08;;
28166;SDS011;15455;53.376;-6.262;2024-03-29T05:04:19;17.95;;;15.65;;
28166;SDS011;15455;53.376;-6.262;2024-03-29T05:07:09;16.17;;;14.85;;
28166;SDS011;15455;53.376;-6.262;2024-03-29T05:09:55;15.73;;;14.48;;
28166;SDS011;15455;53.376;-6.262;2024-03-29T05:12:40;18.63;;;16.98;;
28166;SDS011;15455;53.376;-6.262;2024-03-29T05:15:24;18.80;;;17.17;;
28166;SDS011;15455;53.376;-6.262;2024-03-29T05:18:09;17.70;;;16.40;;
28166;SDS011;15455;53.376;-6.262;2024-03-29T05:20:54;16.05;;;14.98;;
28166;SDS011;15455;53.376;-6.262;2024-03-29T05:23:39;16.95;;;15.35;;
28166;SDS011;15455;53.376;-6.262;2024-03-29T05:26:23;16.42;;;15.25;;
28166;SDS011;15455;53.376;-6.262;2024-03-29T05:29:08;15.60;;;14.60;;
28166;SDS011;15455;53.376;-6.262;2024-03-29T05:31:53;15.02;;;13.77;;
28166;SDS011;15455;53.376;-6.262;2024-03-29T05:34:37;17.27;;;15.90;;
28166;SDS011;15455;53.376;-6.262;2024-03-29T05:37:22;15.25;;;14.65;;
28166;SDS011;15455;53.376;-6.262;2024-03-29T05:40:09;15.50;;;14.38;;
28166;SDS011;15455;53.376;-6.262;2024-03-29T05:42:54;14.45;;;13.75;;
28166;SDS011;15455;53.376;-6.262;2024-03-29T05:45:39;16.80;;;15.60;;
28166;SDS011;15455;53.376;-6.262;2024-03-29T05:48:24;15.52;;;14.75;;
28166;SDS011;15455;53.376;-6.262;2024-03-29T05:51:08;16.08;;;15.27;;
28166;SDS011;15455;53.376;-6.262;2024-03-29T05:53:53;15.65;;;14.50;;
28166;SDS011;15455;53.376;-6.262;2024-03-29T05:56:37;15.65;;;14.95;;
28166;SDS011;15455;53.376;-6.262;2024-03-29T05:59:22;16.90;;;15.23;;
28166;SDS011;15455;53.376;-6.262;2024-03-29T06:02:06;15.52;;;14.73;;
28166;SDS011;15455;53.376;-6.262;2024-03-29T06:04:51;15.82;;;14.85;;
28166;SDS011;15455;53.376;-6.262;2024-03-29T06:07:35;15.70;;;14.60;;
28166;SDS011;15455;53.376;-6.262;2024-03-29T06:10:21;15.43;;;14.57;;
28166;SDS011;15455;53.376;-6.262;2024-03-29T06:13:05;15.43;;;14.00;;
28166;SDS011;15455;53.376;-6.262;2024-03-29T06:16:01;15.68;;;14.85;;
28166;SDS011;15455;53.376;-6.262;2024-03-29T06:19:04;17.13;;;15.85;;
28166;SDS011;15455;53.376;-6.262;2024-03-29T06:21:49;15.23;;;14.52;;
28166;SDS011;15455;53.376;-6.262;2024-03-29T06:24:33;14.93;;;13.98;;
28166;SDS011;15455;53.376;-6.262;2024-03-29T06:27:19;17.30;;;16.45;;
28166;SDS011;15455;53.376;-6.262;2024-03-29T06:30:07;16.63;;;15.52;;
28166;SDS011;15455;53.376;-6.262;2024-03-29T06:32:53;18.13;;;16.45;;
28166;SDS011;15455;53.376;-6.262;2024-03-29T06:35:37;14.55;;;13.95;;
28166;SDS011;15455;53.376;-6.262;2024-03-29T06:38:22;14.40;;;13.57;;
28166;SDS011;15455;53.376;-6.262;2024-03-29T06:41:06;13.80;;;13.00;;
28166;SDS011;15455;53.376;-6.262;2024-03-29T06:43:51;13.95;;;13.23;;
28166;SDS011;15455;53.376;-6.262;2024-03-29T06:46:35;13.15;;;12.38;;
28166;SDS011;15455;53.376;-6.262;2024-03-29T06:49:20;12.07;;;11.45;;
28166;SDS011;15455;53.376;-6.262;2024-03-29T06:52:04;12.52;;;11.70;;
28166;SDS011;15455;53.376;-6.262;2024-03-29T06:54:49;14.35;;;11.30;;
28166;SDS011;15455;53.376;-6.262;2024-03-29T06:57:33;17.00;;;12.27;;
28166;SDS011;15455;53.376;-6.262;2024-03-29T07:00:20;14.18;;;13.52;;
28166;SDS011;15455;53.376;-6.262;2024-03-29T07:03:05;15.15;;;12.48;;
28166;SDS011;15455;53.376;-6.262;2024-03-29T07:05:49;12.45;;;9.55;;
28166;SDS011;15455;53.376;-6.262;2024-03-29T07:08:34;7.80;;;7.35;;
28166;SDS011;15455;53.376;-6.262;2024-03-29T07:11:19;8.90;;;7.97;;
28166;SDS011;15455;53.376;-6.262;2024-03-29T07:14:04;13.65;;;6.75;;
28166;SDS011;15455;53.376;-6.262;2024-03-29T07:16:49;17.33;;;8.05;;
28166;SDS011;15455;53.376;-6.262;2024-03-29T07:19:34;10.23;;;6.38;;
28166;SDS011;15455;53.376;-6.262;2024-03-29T07:22:18;10.70;;;4.70;;
28166;SDS011;15455;53.376;-6.262;2024-03-29T07:25:04;10.23;;;5.57;;
28166;SDS011;15455;53.376;-6.262;2024-03-29T07:27:50;6.15;;;5.03;;
28166;SDS011;15455;53.376;-6.262;2024-03-29T07:30:35;8.98;;;6.03;;
28166;SDS011;15455;53.376;-6.262;2024-03-29T07:33:23;11.93;;;6.45;;
28166;SDS011;15455;53.376;-6.262;2024-03-29T07:36:10;8.15;;;6.40;;
28166;SDS011;15455;53.376;-6.262;2024-03-29T07:38:55;7.28;;;6.00;;
28166;SDS011;15455;53.376;-6.262;2024-03-29T07:41:39;6.70;;;6.13;;
28166;SDS011;15455;53.376;-6.262;2024-03-29T07:44:24;8.10;;;7.60;;
28166;SDS011;15455;53.376;-6.262;2024-03-29T07:47:08;9.60;;;7.53;;
28166;SDS011;15455;53.376;-6.262;2024-03-29T07:49:53;7.68;;;7.05;;
28166;SDS011;15455;53.376;-6.262;2024-03-29T07:52:37;8.80;;;8.02;;
28166;SDS011;15455;53.376;-6.262;2024-03-29T07:55:22;9.20;;;8.07;;
28166;SDS011;15455;53.376;-6.262;2024-03-29T07:58:06;8.50;;;7.90;;
28166;SDS011;15455;53.376;-6.262;2024-03-29T08:00:52;9.15;;;8.20;;
28166;SDS011;15455;53.376;-6.262;2024-03-29T08:03:37;8.65;;;8.02;;
28166;SDS011;15455;53.376;-6.262;2024-03-29T08:06:22;10.95;;;8.40;;
28166;SDS011;15455;53.376;-6.262;2024-03-29T08:09:07;11.20;;;10.30;;
28166;SDS011;15455;53.376;-6.262;2024-03-29T08:11:53;8.80;;;6.28;;
28166;SDS011;15455;53.376;-6.262;2024-03-29T08:14:38;8.68;;;8.05;;
28166;SDS011;15455;53.376;-6.262;2024-03-29T08:17:22;10.40;;;9.18;;
28166;SDS011;15455;53.376;-6.262;2024-03-29T08:20:08;9.82;;;8.73;;
28166;SDS011;15455;53.376;-6.262;2024-03-29T08:22:53;11.13;;;10.68;;
28166;SDS011;15455;53.376;-6.262;2024-03-29T08:25:39;12.05;;;11.20;;
28166;SDS011;15455;53.376;-6.262;2024-03-29T08:28:24;13.38;;;12.43;;
28166;SDS011;15455;53.376;-6.262;2024-03-29T08:31:09;15.75;;;14.60;;
28166;SDS011;15455;53.376;-6.262;2024-03-29T08:33:54;12.82;;;11.63;;
28166;SDS011;15455;53.376;-6.262;2024-03-29T08:36:39;8.15;;;7.53;;
28166;SDS011;15455;53.376;-6.262;2024-03-29T08:39:24;7.07;;;3.50;;
28166;SDS011;15455;53.376;-6.262;2024-03-29T08:42:08;2.38;;;1.40;;
28166;SDS011;15455;53.376;-6.262;2024-03-29T08:44:55;2.15;;;1.00;;
28166;SDS011;15455;53.376;-6.262;2024-03-29T08:47:40;5.25;;;1.08;;
28166;SDS011;15455;53.376;-6.262;2024-03-29T08:50:24;9.07;;;1.33;;
28166;SDS011;15455;53.376;-6.262;2024-03-29T08:53:09;5.25;;;1.05;;
28166;SDS011;15455;53.376;-6.262;2024-03-29T08:55:53;4.40;;;1.10;;
28166;SDS011;15455;53.376;-6.262;2024-03-29T08:58:38;7.05;;;1.25;;
28166;SDS011;15455;53.376;-6.262;2024-03-29T09:01:22;2.83;;;1.05;;
28166;SDS011;15455;53.376;-6.262;2024-03-29T09:04:07;1.90;;;1.38;;
28166;SDS011;15455;53.376;-6.262;2024-03-29T09:06:55;7.72;;;1.23;;
28166;SDS011;15455;53.376;-6.262;2024-03-29T09:09:39;9.88;;;1.20;;
28166;SDS011;15455;53.376;-6.262;2024-03-29T09:12:25;4.38;;;1.08;;
28166;SDS011;15455;53.376;-6.262;2024-03-29T09:15:10;6.78;;;0.93;;
28166;SDS011;15455;53.376;-6.262;2024-03-29T09:17:57;4.57;;;0.77;;
28166;SDS011;15455;53.376;-6.262;2024-03-29T09:20:45;3.50;;;0.65;;
28166;SDS011;15455;53.376;-6.262;2024-03-29T09:23:30;9.20;;;0.85;;
28166;SDS011;15455;53.376;-6.262;2024-03-29T09:26:14;6.90;;;1.05;;
28166;SDS011;15455;53.376;-6.262;2024-03-29T09:29:00;10.88;;;1.38;;
28166;SDS011;15455;53.376;-6.262;2024-03-29T09:31:44;6.40;;;0.88;;
28166;SDS011;15455;53.376;-6.262;2024-03-29T09:34:29;11.27;;;0.93;;
28166;SDS011;15455;53.376;-6.262;2024-03-29T09:37:14;10.93;;;1.27;;
28166;SDS011;15455;53.376;-6.262;2024-03-29T09:39:59;3.47;;;0.80;;
28166;SDS011;15455;53.376;-6.262;2024-03-29T09:42:44;6.38;;;0.98;;
28166;SDS011;15455;53.376;-6.262;2024-03-29T09:45:35;6.55;;;1.10;;
28166;SDS011;15455;53.376;-6.262;2024-03-29T09:51:06;3.85;;;0.80;;
28166;SDS011;15455;53.376;-6.262;2024-03-29T09:53:51;10.18;;;1.17;;
28166;SDS011;15455;53.376;-6.262;2024-03-29T09:56:36;2.97;;;0.80;;
28166;SDS011;15455;53.376;-6.262;2024-03-29T09:59:22;3.72;;;0.70;;
28166;SDS011;15455;53.376;-6.262;2024-03-29T10:02:11;7.50;;;1.00;;
28166;SDS011;15455;53.376;-6.262;2024-03-29T10:05:00;6.60;;;0.93;;
28166;SDS011;15455;53.376;-6.262;2024-03-29T10:07:47;7.97;;;0.75;;
28166;SDS011;15455;53.376;-6.262;2024-03-29T10:10:33;5.25;;;1.00;;
28166;SDS011;15455;53.376;-6.262;2024-03-29T10:13:17;4.40;;;0.88;;
28166;SDS011;15455;53.376;-6.262;2024-03-29T10:16:03;6.65;;;1.02;;
28166;SDS011;15455;53.376;-6.262;2024-03-29T10:18:48;5.38;;;1.55;;
28166;SDS011;15455;53.376;-6.262;2024-03-29T10:21:32;8.30;;;1.05;;
28166;SDS011;15455;53.376;-6.262;2024-03-29T10:24:18;11.75;;;0.73;;
28166;SDS011;15455;53.376;-6.262;2024-03-29T10:27:05;8.05;;;0.90;;
28166;SDS011;15455;53.376;-6.262;2024-03-29T10:29:51;6.90;;;1.42;;
28166;SDS011;15455;53.376;-6.262;2024-03-29T10:32:39;11.80;;;1.05;;
28166;SDS011;15455;53.376;-6.262;2024-03-29T10:35:27;6.20;;;1.45;;
28166;SDS011;15455;53.376;-6.262;2024-03-29T10:38:11;10.88;;;0.77;;
28166;SDS011;15455;53.376;-6.262;2024-03-29T10:40:56;7.22;;;1.52;;
28166;SDS011;15455;53.376;-6.262;2024-03-29T10:43:41;11.30;;;1.00;;
28166;SDS011;15455;53.376;-6.262;2024-03-29T10:46:28;6.18;;;1.00;;
28166;SDS011;15455;53.376;-6.262;2024-03-29T10:49:13;9.77;;;1.02;;
28166;SDS011;15455;53.376;-6.262;2024-03-29T10:52:01;7.10;;;0.88;;
28166;SDS011;15455;53.376;-6.262;2024-03-29T10:54:48;5.38;;;0.95;;
28166;SDS011;15455;53.376;-6.262;2024-03-29T10:57:34;8.18;;;0.82;;
28166;SDS011;15455;53.376;-6.262;2024-03-29T11:00:25;6.43;;;1.45;;
28166;SDS011;15455;53.376;-6.262;2024-03-29T11:06:16;7.13;;;1.48;;
28166;SDS011;15455;53.376;-6.262;2024-03-29T11:09:05;11.48;;;1.65;;
28166;SDS011;15455;53.376;-6.262;2024-03-29T11:11:54;6.15;;;1.10;;
28166;SDS011;15455;53.376;-6.262;2024-03-29T11:14:45;6.60;;;1.25;;
28166;SDS011;15455;53.376;-6.262;2024-03-29T11:17:34;8.68;;;1.20;;
28166;SDS011;15455;53.376;-6.262;2024-03-29T11:20:21;3.22;;;0.93;;
28166;SDS011;15455;53.376;-6.262;2024-03-29T11:23:12;10.55;;;1.35;;
28166;SDS011;15455;53.376;-6.262;2024-03-29T11:25:58;11.02;;;0.90;;
28166;SDS011;15455;53.376;-6.262;2024-03-29T11:28:50;6.03;;;1.00;;
28166;SDS011;15455;53.376;-6.262;2024-03-29T11:31:38;10.70;;;1.48;;
28166;SDS011;15455;53.376;-6.262;2024-03-29T11:34:22;7.72;;;1.23;;
28166;SDS011;15455;53.376;-6.262;2024-03-29T11:37:09;9.77;;;1.17;;
28166;SDS011;15455;53.376;-6.262;2024-03-29T11:39:55;16.58;;;1.83;;
28166;SDS011;15455;53.376;-6.262;2024-03-29T11:42:49;6.93;;;1.70;;
28166;SDS011;15455;53.376;-6.262;2024-03-29T11:45:36;19.55;;;1.83;;
28166;SDS011;15455;53.376;-6.262;2024-03-29T11:48:23;16.70;;;2.15;;
28166;SDS011;15455;53.376;-6.262;2024-03-29T11:51:11;7.45;;;1.50;;
28166;SDS011;15455;53.376;-6.262;2024-03-29T11:53:59;19.02;;;1.95;;
28166;SDS011;15455;53.376;-6.262;2024-03-29T11:56:44;15.68;;;2.65;;
28166;SDS011;15455;53.376;-6.262;2024-03-29T11:59:29;22.55;;;4.32;;
28166;SDS011;15455;53.376;-6.262;2024-03-29T12:02:14;23.05;;;4.78;;
28166;SDS011;15455;53.376;-6.262;2024-03-29T12:05:05;13.43;;;3.13;;
28166;SDS011;15455;53.376;-6.262;2024-03-29T12:07:53;18.85;;;2.75;;
28166;SDS011;15455;53.376;-6.262;2024-03-29T12:10:38;8.65;;;1.77;;
28166;SDS011;15455;53.376;-6.262;2024-03-29T12:13:22;7.30;;;1.67;;
28166;SDS011;15455;53.376;-6.262;2024-03-29T12:16:08;8.63;;;1.17;;
28166;SDS011;15455;53.376;-6.262;2024-03-29T12:18:52;9.95;;;1.25;;
28166;SDS011;15455;53.376;-6.262;2024-03-29T12:21:37;6.57;;;1.02;;
28166;SDS011;15455;53.376;-6.262;2024-03-29T12:24:21;4.57;;;0.85;;
28166;SDS011;15455;53.376;-6.262;2024-03-29T12:27:06;6.32;;;1.10;;
28166;SDS011;15455;53.376;-6.262;2024-03-29T12:29:52;8.32;;;1.23;;
28166;SDS011;15455;53.376;-6.262;2024-03-29T12:32:37;2.97;;;0.68;;
28166;SDS011;15455;53.376;-6.262;2024-03-29T12:35:21;1.55;;;0.70;;
28166;SDS011;15455;53.376;-6.262;2024-03-29T12:38:06;5.20;;;1.08;;
28166;SDS011;15455;53.376;-6.262;2024-03-29T12:40:53;4.13;;;1.02;;
28166;SDS011;15455;53.376;-6.262;2024-03-29T12:43:39;2.88;;;0.60;;
28166;SDS011;15455;53.376;-6.262;2024-03-29T12:46:24;7.28;;;0.85;;
28166;SDS011;15455;53.376;-6.262;2024-03-29T12:49:10;1.40;;;0.50;;
28166;SDS011;15455;53.376;-6.262;2024-03-29T12:51:56;7.80;;;0.80;;
28166;SDS011;15455;53.376;-6.262;2024-03-29T12:54:41;3.95;;;0.93;;
28166;SDS011;15455;53.376;-6.262;2024-03-29T12:57:26;2.85;;;0.70;;
28166;SDS011;15455;53.376;-6.262;2024-03-29T13:00:11;5.07;;;0.60;;
28166;SDS011;15455;53.376;-6.262;2024-03-29T13:02:56;2.88;;;0.95;;
28166;SDS011;15455;53.376;-6.262;2024-03-29T13:05:41;3.15;;;0.60;;
28166;SDS011;15455;53.376;-6.262;2024-03-29T13:08:25;4.65;;;0.80;;
28166;SDS011;15455;53.376;-6.262;2024-03-29T13:11:10;1.63;;;0.50;;
28166;SDS011;15455;53.376;-6.262;2024-03-29T13:13:55;5.60;;;1.08;;
28166;SDS011;15455;53.376;-6.262;2024-03-29T13:16:39;7.55;;;1.15;;
28166;SDS011;15455;53.376;-6.262;2024-03-29T13:19:25;7.15;;;1.10;;
28166;SDS011;15455;53.376;-6.262;2024-03-29T13:22:09;3.80;;;0.77;;
28166;SDS011;15455;53.376;-6.262;2024-03-29T13:24:53;6.45;;;1.60;;
28166;SDS011;15455;53.376;-6.262;2024-03-29T13:27:38;13.20;;;1.50;;
28166;SDS011;15455;53.376;-6.262;2024-03-29T13:30:24;5.15;;;1.00;;
28166;SDS011;15455;53.376;-6.262;2024-03-29T13:33:10;6.90;;;1.50;;
28166;SDS011;15455;53.376;-6.262;2024-03-29T13:35:57;8.82;;;1.05;;
28166;SDS011;15455;53.376;-6.262;2024-03-29T13:38:43;6.05;;;1.40;;
28166;SDS011;15455;53.376;-6.262;2024-03-29T13:41:27;6.75;;;1.92;;
28166;SDS011;15455;53.376;-6.262;2024-03-29T13:44:12;10.98;;;1.75;;
28166;SDS011;15455;53.376;-6.262;2024-03-29T13:46:57;7.20;;;1.10;;
28166;SDS011;15455;53.376;-6.262;2024-03-29T13:49:42;8.93;;;1.80;;
28166;SDS011;15455;53.376;-6.262;2024-03-29T13:52:26;8.13;;;1.02;;
28166;SDS011;15455;53.376;-6.262;2024-03-29T13:55:11;6.30;;;1.60;;
28166;SDS011;15455;53.376;-6.262;2024-03-29T13:57:56;12.40;;;1.55;;
28166;SDS011;15455;53.376;-6.262;2024-03-29T14:00:41;9.93;;;1.70;;
28166;SDS011;15455;53.376;-6.262;2024-03-29T14:03:26;8.43;;;1.95;;
28166;SDS011;15455;53.376;-6.262;2024-03-29T14:06:10;16.60;;;1.17;;
28166;SDS011;15455;53.376;-6.262;2024-03-29T14:08:55;6.13;;;1.45;;
28166;SDS011;15455;53.376;-6.262;2024-03-29T14:11:39;11.75;;;1.40;;
28166;SDS011;15455;53.376;-6.262;2024-03-29T14:14:24;7.15;;;1.02;;
28166;SDS011;15455;53.376;-6.262;2024-03-29T14:17:11;6.10;;;1.05;;
28166;SDS011;15455;53.376;-6.262;2024-03-29T14:19:55;12.00;;;1.65;;
28166;SDS011;15455;53.376;-6.262;2024-03-29T14:22:40;10.00;;;1.15;;
28166;SDS011;15455;53.376;-6.262;2024-03-29T14:25:24;5.47;;;1.20;;
28166;SDS011;15455;53.376;-6.262;2024-03-29T14:28:09;5.95;;;0.98;;
28166;SDS011;15455;53.376;-6.262;2024-03-29T14:30:53;8.25;;;1.10;;
28166;SDS011;15455;53.376;-6.262;2024-03-29T14:33:38;8.50;;;1.05;;
28166;SDS011;15455;53.376;-6.262;2024-03-29T14:36:22;6.97;;;1.02;;
28166;SDS011;15455;53.376;-6.262;2024-03-29T14:39:07;6.32;;;0.90;;
28166;SDS011;15455;53.376;-6.262;2024-03-29T14:41:52;4.78;;;0.90;;
28166;SDS011;15455;53.376;-6.262;2024-03-29T14:44:36;7.75;;;1.83;;
28166;SDS011;15455;53.376;-6.262;2024-03-29T14:47:21;2.53;;;0.60;;
28166;SDS011;15455;53.376;-6.262;2024-03-29T14:50:06;4.57;;;0.80;;
28166;SDS011;15455;53.376;-6.262;2024-03-29T14:52:52;3.38;;;0.90;;
28166;SDS011;15455;53.376;-6.262;2024-03-29T14:55:37;6.70;;;0.70;;
28166;SDS011;15455;53.376;-6.262;2024-03-29T14:58:23;2.97;;;1.00;;
28166;SDS011;15455;53.376;-6.262;2024-03-29T15:01:08;2.55;;;0.93;;
28166;SDS011;15455;53.376;-6.262;2024-03-29T15:03:53;7.00;;;1.70;;
28166;SDS011;15455;53.376;-6.262;2024-03-29T15:06:38;9.43;;;1.60;;
28166;SDS011;15455;53.376;-6.262;2024-03-29T15:09:23;2.38;;;0.75;;
28166;SDS011;15455;53.376;-6.262;2024-03-29T15:12:08;6.45;;;1.70;;
28166;SDS011;15455;53.376;-6.262;2024-03-29T15:14:55;4.53;;;1.23;;
28166;SDS011;15455;53.376;-6.262;2024-03-29T15:17:39;3.70;;;0.80;;
28166;SDS011;15455;53.376;-6.262;2024-03-29T15:20:25;4.07;;;1.02;;
28166;SDS011;15455;53.376;-6.262;2024-03-29T15:23:09;6.00;;;0.95;;
28166;SDS011;15455;53.376;-6.262;2024-03-29T15:25:55;8.30;;;1.27;;
28166;SDS011;15455;53.376;-6.262;2024-03-29T15:28:41;6.88;;;0.85;;
28166;SDS011;15455;53.376;-6.262;2024-03-29T15:31:44;3.85;;;0.60;;
28166;SDS011;15455;53.376;-6.262;2024-03-29T15:34:29;3.30;;;0.70;;
28166;SDS011;15455;53.376;-6.262;2024-03-29T15:37:13;3.45;;;0.73;;
28166;SDS011;15455;53.376;-6.262;2024-03-29T15:39:58;5.70;;;0.77;;
28166;SDS011;15455;53.376;-6.262;2024-03-29T15:42:44;2.25;;;0.70;;
28166;SDS011;15455;53.376;-6.262;2024-03-29T15:45:28;2.80;;;0.55;;
28166;SDS011;15455;53.376;-6.262;2024-03-29T15:48:13;4.55;;;0.88;;
28166;SDS011;15455;53.376;-6.262;2024-03-29T15:50:58;5.82;;;0.70;;
28166;SDS011;15455;53.376;-6.262;2024-03-29T15:53:42;4.15;;;0.93;;
28166;SDS011;15455;53.376;-6.262;2024-03-29T15:56:27;6.40;;;1.00;;
28166;SDS011;15455;53.376;-6.262;2024-03-29T15:59:13;4.03;;;1.10;;
28166;SDS011;15455;53.376;-6.262;2024-03-29T16:01:57;5.32;;;1.05;;
28166;SDS011;15455;53.376;-6.262;2024-03-29T16:04:43;1.80;;;1.02;;
28166;SDS011;15455;53.376;-6.262;2024-03-29T16:07:28;2.60;;;1.38;;
28166;SDS011;15455;53.376;-6.262;2024-03-29T16:10:13;5.57;;;1.55;;
28166;SDS011;15455;53.376;-6.262;2024-03-29T16:12:57;4.22;;;1.13;;